Time;durP1;ratioP1;P1;durP2;ratioP2;P2;SDS_P1;SDS_P2;PMS_P1;PMS_P2;Temp;Humidity;BMP_temperature;BMP_pressure;BME280_temperature;BME280_humidity;BME280_pressure;Samples;Min_cycle;Max_cycle;Signal;HPM_P1;HPM_P2
2023/05/07 00:26:40;;;;;;;4.57;1.27;;;;;;;;;;6150385;23;20100;-83
2023/05/07 01:14:48;;;;;;;4.93;1.70;;;;;;;;;;6032273;23;20028;-83
2023/05/07 01:30:21;;;;;;;;;;;;;;;;;;;;;
2023/05/07 01:40:14;;;;;;;;;;;;;;;;;;;;;
2023/05/07 01:52:31;;;;;;;7.53;2.20;;;;;;;;;;6089855;23;20024;-83
2023/05/07 02:02:29;;;;;;;5.43;2.50;;;;;;;;;;5946342;24;20013;-82
2023/05/07 02:05:45;;;;;;;7.35;2.75;;;;;;;;;;5919667;24;20168;-83
2023/05/07 02:14:26;;;;;;;;;;;;;;;;;;;;;
2023/05/07 02:23:52;;;;;;;;;;;;;;;;;;;;;
2023/05/07 02:27:57;;;;;;;5.55;2.50;;;;;;;;;;6021236;23;20026;-82
2023/05/07 02:35:20;;;;;;;5.18;2.47;;;;;;;;;;6134248;23;20184;-82
2023/05/07 02:38:31;;;;;;;7.85;2.65;;;;;;;;;;6124138;23;20032;-83
2023/05/07 02:41:39;;;;;;;;;;;;;;;;;;;;;
2023/05/07 03:06:14;;;;;;;5.88;2.80;;;;;;;;;;6143397;23;20045;-83
2023/05/07 03:12:23;;;;;;;7.65;2.70;;;;;;;;;;6151489;23;20021;-82
2023/05/07 03:15:21;;;;;;;7.80;2.80;;;;;;;;;;6124656;23;20017;-82
2023/05/07 03:18:20;;;;;;;8.23;2.90;;;;;;;;;;5975804;23;20032;-82
2023/05/07 03:20:58;;;;;;;8.63;3.10;;;;;;;;;;6094602;23;20013;-82
2023/05/07 03:30:16;;;;;;;6.80;2.45;;;;;;;;;;6033458;23;20025;-82
2023/05/07 03:32:43;;;;;;;9.05;3.20;;;;;;;;;;6063234;23;20041;-82
2023/05/07 03:35:09;;;;;;;9.20;3.30;;;;;;;;;;6065404;23;20128;-82
2023/05/07 03:37:38;;;;;;;11.65;3.97;;;;;;;;;;6066101;23;20042;-82
2023/05/07 03:40:05;;;;;;;13.60;5.07;;;;;;;;;;6065760;23;20057;-83
2023/05/07 03:42:33;;;;;;;11.52;3.97;;;;;;;;;;6082625;23;20828;-83
2023/05/07 03:45:17;;;;;;;14.07;4.40;;;;;;;;;;6119213;23;20005;-82
2023/05/07 03:47:46;;;;;;;10.93;4.40;;;;;;;;;;6119543;23;20018;-82
2023/05/07 03:50:14;;;;;;;12.82;4.45;;;;;;;;;;6119128;23;20017;-82
2023/05/07 03:52:46;;;;;;;14.85;4.75;;;;;;;;;;6119316;23;20358;-82
2023/05/07 03:55:14;;;;;;;9.75;3.40;;;;;;;;;;6145413;23;20634;-82
2023/05/07 03:57:43;;;;;;;11.57;4.18;;;;;;;;;;6152547;23;20085;-82
2023/05/07 04:00:11;;;;;;;11.05;5.30;;;;;;;;;;6151903;23;20080;-82
2023/05/07 04:03:06;;;;;;;13.10;4.60;;;;;;;;;;6125947;23;20365;-81
2023/05/07 04:05:49;;;;;;;11.18;3.70;;;;;;;;;;6124627;23;20013;-82
2023/05/07 04:08:24;;;;;;;10.35;3.05;;;;;;;;;;6126284;23;20488;-81
2023/05/07 04:11:30;;;;;;;;;;;;;;;;;;;;;
2023/05/07 04:17:00;;;;;;;9.57;3.40;;;;;;;;;;6007183;23;20408;-82
2023/05/07 04:19:31;;;;;;;9.88;5.47;;;;;;;;;;6008231;23;20104;-81
2023/05/07 04:22:02;;;;;;;8.05;4.05;;;;;;;;;;6032387;23;20056;-81
2023/05/07 04:28:13;;;;;;;;;;;;;;;;;;;;;
2023/05/07 04:30:41;;;;;;;9.45;3.88;;;;;;;;;;6026723;23;20094;-81
2023/05/07 04:33:27;;;;;;;7.30;3.65;;;;;;;;;;6007131;23;20451;-82
2023/05/07 04:36:02;;;;;;;9.60;3.42;;;;;;;;;;6024612;23;20497;-81
2023/05/07 04:38:34;;;;;;;7.55;2.75;;;;;;;;;;6049003;23;20019;-81
2023/05/07 04:41:05;;;;;;;7.22;2.83;;;;;;;;;;6036360;23;20013;-81
2023/05/07 04:43:42;;;;;;;9.40;3.15;;;;;;;;;;6048321;23;20018;-82
2023/05/07 04:46:14;;;;;;;7.22;2.90;;;;;;;;;;6060672;23;20093;-81
2023/05/07 04:48:42;;;;;;;11.23;2.95;;;;;;;;;;6060816;23;20050;-81
2023/05/07 04:51:11;;;;;;;8.63;2.53;;;;;;;;;;6059630;23;20116;-82
2023/05/07 04:53:38;;;;;;;7.95;2.60;;;;;;;;;;6060973;23;20026;-82
2023/05/07 04:56:04;;;;;;;11.55;2.45;;;;;;;;;;6125386;23;20017;-81
2023/05/07 04:58:31;;;;;;;8.05;3.10;;;;;;;;;;6125797;23;20333;-82
2023/05/07 05:00:58;;;;;;;5.38;2.58;;;;;;;;;;6124684;23;20015;-82
2023/05/07 05:03:26;;;;;;;7.93;3.08;;;;;;;;;;6151649;23;20016;-82
2023/05/07 05:05:52;;;;;;;8.27;3.15;;;;;;;;;;6124687;23;20032;-82
2023/05/07 05:08:18;;;;;;;9.40;2.95;;;;;;;;;;6125355;23;20013;-82
2023/05/07 05:10:45;;;;;;;6.63;2.67;;;;;;;;;;6124814;23;20044;-82
2023/05/07 05:13:12;;;;;;;5.55;1.83;;;;;;;;;;6151579;23;20014;-82
2023/05/07 05:15:43;;;;;;;6.50;2.72;;;;;;;;;;6125392;23;20029;-82
2023/05/07 05:18:09;;;;;;;5.60;2.25;;;;;;;;;;6151535;23;20461;-82
2023/05/07 05:20:36;;;;;;;6.25;2.40;;;;;;;;;;6125339;23;20630;-82
2023/05/07 05:23:02;;;;;;;9.60;2.50;;;;;;;;;;6124481;23;20330;-82
2023/05/07 05:25:28;;;;;;;6.75;1.88;;;;;;;;;;6151334;23;20036;-82
2023/05/07 05:27:54;;;;;;;7.78;2.80;;;;;;;;;;6151398;23;20044;-82
2023/05/07 05:30:20;;;;;;;8.52;3.15;;;;;;;;;;6125651;23;20783;-81
2023/05/07 05:32:46;;;;;;;8.98;2.75;;;;;;;;;;6125113;23;20028;-82
2023/05/07 05:35:12;;;;;;;5.00;2.70;;;;;;;;;;6125523;23;20037;-82
2023/05/07 05:37:38;;;;;;;5.45;2.42;;;;;;;;;;6124807;23;20373;-82
2023/05/07 05:40:04;;;;;;;4.80;2.10;;;;;;;;;;6124032;23;20009;-82
2023/05/07 05:42:30;;;;;;;4.95;1.95;;;;;;;;;;6150875;23;20044;-82
2023/05/07 05:44:56;;;;;;;4.95;2.08;;;;;;;;;;6124908;23;20029;-82
2023/05/07 05:47:23;;;;;;;4.90;2.20;;;;;;;;;;6151751;23;20018;-82
2023/05/07 05:49:49;;;;;;;5.68;2.22;;;;;;;;;;6151380;23;20009;-82
2023/05/07 05:52:16;;;;;;;6.88;2.15;;;;;;;;;;6124963;23;20020;-82
2023/05/07 05:54:42;;;;;;;7.15;2.65;;;;;;;;;;6124583;23;20013;-81
2023/05/07 05:57:08;;;;;;;7.93;2.70;;;;;;;;;;6125076;23;20049;-82
2023/05/07 05:59:34;;;;;;;6.07;2.45;;;;;;;;;;6150546;23;20010;-82
2023/05/07 06:02:01;;;;;;;6.15;2.05;;;;;;;;;;6125092;23;20448;-82
2023/05/07 06:04:27;;;;;;;4.43;2.00;;;;;;;;;;6126068;23;20002;-82
2023/05/07 06:06:53;;;;;;;9.80;2.63;;;;;;;;;;6126278;23;20010;-83
2023/05/07 06:09:19;;;;;;;4.43;2.25;;;;;;;;;;6125815;23;20009;-82
2023/05/07 06:11:45;;;;;;;7.45;2.83;;;;;;;;;;6124817;23;20020;-83
2023/05/07 06:14:11;;;;;;;9.60;3.22;;;;;;;;;;6125422;23;20013;-82
2023/05/07 06:16:37;;;;;;;6.80;3.17;;;;;;;;;;6124299;23;20037;-84
2023/05/07 06:19:03;;;;;;;5.38;2.95;;;;;;;;;;6124535;23;20025;-83
2023/05/07 06:21:30;;;;;;;6.47;3.15;;;;;;;;;;6123661;23;20093;-83
2023/05/07 06:23:56;;;;;;;6.80;2.83;;;;;;;;;;6151214;23;20009;-83
2023/05/07 06:26:22;;;;;;;6.20;2.83;;;;;;;;;;6150496;23;20408;-83
2023/05/07 06:28:48;;;;;;;6.63;2.63;;;;;;;;;;6151656;23;20092;-83
2023/05/07 06:31:20;;;;;;;6.03;2.97;;;;;;;;;;6150509;23;20478;-83
2023/05/07 06:33:46;;;;;;;6.85;3.30;;;;;;;;;;6151229;23;20109;-83
2023/05/07 06:36:12;;;;;;;7.53;3.20;;;;;;;;;;6150678;23;20005;-83
2023/05/07 06:38:38;;;;;;;5.97;2.90;;;;;;;;;;6150712;23;20045;-83
2023/05/07 06:41:06;;;;;;;5.10;2.50;;;;;;;;;;6150766;23;20010;-83
2023/05/07 06:43:32;;;;;;;5.00;2.20;;;;;;;;;;6151281;23;20422;-83
2023/05/07 06:45:58;;;;;;;5.82;1.85;;;;;;;;;;6150324;23;20006;-83
2023/05/07 06:48:24;;;;;;;9.48;2.80;;;;;;;;;;6124471;23;20112;-83
2023/05/07 06:50:50;;;;;;;6.00;1.92;;;;;;;;;;6149694;23;20442;-83
2023/05/07 06:53:16;;;;;;;6.65;2.42;;;;;;;;;;6124576;23;20024;-83
2023/05/07 06:55:42;;;;;;;4.55;1.75;;;;;;;;;;6124106;23;20020;-83
2023/05/07 06:58:08;;;;;;;7.85;2.50;;;;;;;;;;6124829;23;20025;-85
2023/05/07 07:00:35;;;;;;;5.18;1.95;;;;;;;;;;6148793;23;20009;-88
2023/05/07 07:03:00;;;;;;;4.55;1.98;;;;;;;;;;6125188;23;20021;-87
2023/05/07 07:05:26;;;;;;;8.68;2.05;;;;;;;;;;6126130;23;20010;-88
2023/05/07 07:07:52;;;;;;;7.53;1.73;;;;;;;;;;6125245;23;20018;-88
2023/05/07 07:10:22;;;;;;;7.15;1.98;;;;;;;;;;6127186;23;20444;-89
2023/05/07 07:12:49;;;;;;;5.40;1.90;;;;;;;;;;6126364;23;20763;-87
2023/05/07 07:15:15;;;;;;;6.43;2.13;;;;;;;;;;6101059;23;20010;-86
2023/05/07 07:17:41;;;;;;;7.03;2.03;;;;;;;;;;6123752;23;20018;-88
2023/05/07 07:20:08;;;;;;;5.10;2.10;;;;;;;;;;6098483;23;20061;-88
2023/05/07 07:22:34;;;;;;;6.22;2.40;;;;;;;;;;6096765;23;20037;-84
2023/05/07 07:25:00;;;;;;;4.07;1.70;;;;;;;;;;6122763;23;20082;-84
2023/05/07 07:27:26;;;;;;;6.60;1.85;;;;;;;;;;6126653;23;20010;-87
2023/05/07 07:29:52;;;;;;;5.18;1.92;;;;;;;;;;6126417;23;20299;-87
2023/05/07 07:32:18;;;;;;;6.82;1.60;;;;;;;;;;6100286;23;20438;-88
2023/05/07 07:34:44;;;;;;;3.88;1.70;;;;;;;;;;6098437;23;20013;-87
2023/05/07 07:37:10;;;;;;;5.03;1.73;;;;;;;;;;6097721;23;20014;-86
2023/05/07 07:39:39;;;;;;;5.05;1.75;;;;;;;;;;6097918;23;20014;-88
2023/05/07 07:42:05;;;;;;;6.30;1.83;;;;;;;;;;6097510;23;20010;-86
2023/05/07 07:44:31;;;;;;;5.10;1.73;;;;;;;;;;6123540;23;20045;-89
2023/05/07 07:46:57;;;;;;;4.68;1.98;;;;;;;;;;6097950;23;20010;-85
2023/05/07 07:49:23;;;;;;;6.50;1.92;;;;;;;;;;6099160;23;20028;-87
2023/05/07 07:51:49;;;;;;;6.72;1.85;;;;;;;;;;6098192;23;20010;-87
2023/05/07 07:54:15;;;;;;;4.68;1.42;;;;;;;;;;6098170;23;20050;-85
2023/05/07 07:56:41;;;;;;;16.08;1.65;;;;;;;;;;6099085;23;20042;-85
2023/05/07 07:59:07;;;;;;;3.05;1.55;;;;;;;;;;6099459;23;20132;-84
2023/05/07 08:01:33;;;;;;;6.75;2.17;;;;;;;;;;6097251;23;20088;-84
2023/05/07 08:03:59;;;;;;;3.53;1.40;;;;;;;;;;6122635;23;20406;-83
2023/05/07 08:06:28;;;;;;;4.40;1.40;;;;;;;;;;6122341;23;20078;-84
2023/05/07 08:08:54;;;;;;;7.90;1.35;;;;;;;;;;6122488;23;20101;-81
2023/05/07 08:11:21;;;;;;;4.00;1.50;;;;;;;;;;6095784;23;20041;-84
2023/05/07 08:13:47;;;;;;;6.93;1.83;;;;;;;;;;6094926;23;20010;-86
2023/05/07 08:16:13;;;;;;;4.57;1.52;;;;;;;;;;6122505;23;20110;-84
2023/05/07 08:18:39;;;;;;;4.72;1.67;;;;;;;;;;6122186;23;20093;-83
2023/05/07 08:21:06;;;;;;;3.60;1.40;;;;;;;;;;6120116;23;20002;-83
2023/05/07 08:23:32;;;;;;;5.47;1.80;;;;;;;;;;6123305;23;20057;-83
2023/05/07 08:25:58;;;;;;;6.68;1.80;;;;;;;;;;6123927;23;20053;-88
2023/05/07 08:28:24;;;;;;;6.00;1.80;;;;;;;;;;6097490;23;20386;-84
2023/05/07 08:30:51;;;;;;;6.95;1.80;;;;;;;;;;6096936;23;20009;-85
2023/05/07 08:33:17;;;;;;;6.13;2.17;;;;;;;;;;6095837;23;20046;-83
2023/05/07 08:35:43;;;;;;;7.68;2.75;;;;;;;;;;6096680;23;20445;-85
2023/05/07 08:38:09;;;;;;;5.03;1.92;;;;;;;;;;6097154;23;20022;-84
2023/05/07 08:40:37;;;;;;;3.67;1.58;;;;;;;;;;6122320;23;20413;-82
2023/05/07 08:48:58;;;;;;;2.90;1.10;;;;;;;;;;6113204;23;20044;-83
2023/05/07 08:51:32;;;;;;;3.78;1.30;;;;;;;;;;6178256;23;20056;-80
2023/05/07 08:53:58;;;;;;;4.20;1.30;;;;;;;;;;6180019;23;20028;-81
2023/05/07 08:56:25;;;;;;;2.35;1.20;;;;;;;;;;6176617;23;20013;-81
2023/05/07 08:59:06;;;;;;;5.40;1.50;;;;;;;;;;6177118;23;20021;-81
2023/05/07 09:01:35;;;;;;;9.00;2.00;;;;;;;;;;6180843;23;20005;-80
2023/05/07 09:04:02;;;;;;;3.58;1.35;;;;;;;;;;6180923;23;20013;-80
2023/05/07 09:06:41;;;;;;;3.83;1.40;;;;;;;;;;6178186;23;20425;-82
2023/05/07 09:09:10;;;;;;;7.70;1.40;;;;;;;;;;6178741;23;20036;-81
2023/05/07 09:11:36;;;;;;;3.72;1.10;;;;;;;;;;6179615;23;20012;-81
2023/05/07 09:14:03;;;;;;;4.10;1.30;;;;;;;;;;6180209;23;20435;-82
2023/05/07 09:16:37;;;;;;;7.80;1.50;;;;;;;;;;6181598;23;20080;-81
2023/05/07 09:19:12;;;;;;;3.70;1.35;;;;;;;;;;6179612;23;20095;-83
2023/05/07 09:21:44;;;;;;;3.13;1.40;;;;;;;;;;6179374;23;20345;-82
2023/05/07 09:24:33;;;;;;;5.05;1.20;;;;;;;;;;6179274;23;20013;-82
2023/05/07 09:27:13;;;;;;;4.70;1.30;;;;;;;;;;6178156;23;20015;-81
2023/05/07 09:32:54;;;;;;;5.78;1.20;;;;;;;;;;6181437;23;20017;-82
2023/05/07 09:35:27;;;;;;;3.58;1.20;;;;;;;;;;6181310;23;20009;-82
2023/05/07 09:37:56;;;;;;;4.78;1.35;;;;;;;;;;6181932;23;20425;-83
2023/05/07 09:40:29;;;;;;;3.78;1.30;;;;;;;;;;6181717;23;20032;-83
2023/05/07 09:42:55;;;;;;;3.45;1.65;;;;;;;;;;6178845;23;20013;-82
2023/05/07 09:45:29;;;;;;;4.38;1.30;;;;;;;;;;6180998;23;20464;-84
2023/05/07 09:47:57;;;;;;;3.45;1.13;;;;;;;;;;6179500;23;20115;-83
2023/05/07 09:50:30;;;;;;;4.35;1.42;;;;;;;;;;6181370;23;20021;-83
2023/05/07 09:55:41;;;;;;;3.50;1.33;;;;;;;;;;6177722;23;20460;-83
2023/05/07 09:58:13;;;;;;;3.17;1.20;;;;;;;;;;6181001;23;20013;-84
2023/05/07 10:00:49;;;;;;;4.40;1.60;;;;;;;;;;6179949;23;20027;-84
2023/05/07 10:04:08;;;;;;;4.40;1.52;;;;;;;;;;6179392;23;20051;-86
2023/05/07 10:06:28;;;;;;;5.85;1.60;;;;;;;;;;6175412;23;20015;-82
2023/05/07 10:08:55;;;;;;;3.10;1.38;;;;;;;;;;6179291;23;20348;-83
2023/05/07 10:11:56;;;;;;;5.85;1.70;;;;;;;;;;6179897;23;20082;-83
2023/05/07 10:15:00;;;;;;;15.25;10.50;;;;;;;;;;6179225;23;20430;-84
2023/05/07 10:17:46;;;;;;;10.35;5.57;;;;;;;;;;6060986;23;20355;-83
2023/05/07 10:22:51;;;;;;;5.78;1.60;;;;;;;;;;6151508;23;20026;-83
2023/05/07 10:25:28;;;;;;;4.63;1.10;;;;;;;;;;6150180;23;20037;-83
2023/05/07 10:27:56;;;;;;;3.20;1.40;;;;;;;;;;6149762;23;20057;-84
2023/05/07 10:33:38;;;;;;;4.13;1.48;;;;;;;;;;6151218;23;20032;-82
2023/05/07 10:46:27;;;;;;;6.88;2.30;;;;;;;;;;6122808;23;20026;-83
2023/05/07 10:49:25;;;;;;;6.63;1.88;;;;;;;;;;6124127;23;20438;-82
2023/05/07 10:52:10;;;;;;;4.80;1.98;;;;;;;;;;6098138;23;20014;-81
2023/05/07 10:54:36;;;;;;;10.88;3.30;;;;;;;;;;6097337;23;20113;-82
2023/05/07 10:57:22;;;;;;;7.38;2.35;;;;;;;;;;6097700;23;20014;-82
2023/05/07 10:59:48;;;;;;;6.13;2.25;;;;;;;;;;6097352;23;20368;-82
2023/05/07 11:02:15;;;;;;;6.25;2.85;;;;;;;;;;6122697;23;20692;-82
2023/05/07 11:04:41;;;;;;;8.55;3.47;;;;;;;;;;6097088;23;20018;-81
2023/05/07 11:07:11;;;;;;;11.02;3.80;;;;;;;;;;6122710;23;20068;-82
2023/05/07 11:10:07;;;;;;;8.75;5.53;;;;;;;;;;6123156;23;20014;-81
2023/05/07 11:12:36;;;;;;;11.52;6.43;;;;;;;;;;6072763;23;20014;-82
2023/05/07 11:15:12;;;;;;;7.43;2.80;;;;;;;;;;6123314;23;20018;-81
2023/05/07 11:17:57;;;;;;;8.32;3.35;;;;;;;;;;6096366;23;20010;-82
2023/05/07 11:20:56;;;;;;;9.00;4.00;;;;;;;;;;6096772;23;20029;-80
2023/05/07 11:23:34;;;;;;;7.57;4.28;;;;;;;;;;6034312;23;20341;-81
2023/05/07 11:26:04;;;;;;;9.23;3.13;;;;;;;;;;6098457;23;20394;-82
2023/05/07 11:28:31;;;;;;;6.97;2.72;;;;;;;;;;6096926;23;20434;-82
2023/05/07 11:30:58;;;;;;;8.30;3.88;;;;;;;;;;6097357;23;20096;-82
2023/05/07 11:33:27;;;;;;;7.57;3.47;;;;;;;;;;6097882;23;20009;-82
2023/05/07 11:35:54;;;;;;;8.32;4.40;;;;;;;;;;6124417;23;20013;-82
2023/05/07 11:38:20;;;;;;;8.57;3.60;;;;;;;;;;6097140;23;20014;-82
2023/05/07 11:40:51;;;;;;;7.07;2.70;;;;;;;;;;6123859;23;20014;-82
2023/05/07 11:43:17;;;;;;;6.40;3.00;;;;;;;;;;6096332;23;20010;-82
2023/05/07 11:45:43;;;;;;;11.40;2.58;;;;;;;;;;6096476;23;20112;-82
2023/05/07 11:48:09;;;;;;;6.00;2.50;;;;;;;;;;6097147;23;20009;-82
2023/05/07 11:50:35;;;;;;;12.80;1.80;;;;;;;;;;6096833;23;20349;-82
2023/05/07 11:53:07;;;;;;;7.35;2.15;;;;;;;;;;6096020;23;20020;-82
2023/05/07 11:55:33;;;;;;;5.78;2.22;;;;;;;;;;6096511;23;20513;-82
2023/05/07 11:57:59;;;;;;;7.13;1.90;;;;;;;;;;6097316;23;20505;-82
2023/05/07 12:00:25;;;;;;;5.45;1.65;;;;;;;;;;6123494;23;20021;-82
2023/05/07 12:02:51;;;;;;;4.53;1.90;;;;;;;;;;6122617;23;20010;-82
2023/05/07 12:05:17;;;;;;;8.23;1.88;;;;;;;;;;6096527;23;20733;-82
2023/05/07 12:07:43;;;;;;;7.55;1.83;;;;;;;;;;6097041;23;20771;-82
2023/05/07 12:10:12;;;;;;;3.95;1.98;;;;;;;;;;6122288;23;20010;-83
2023/05/07 12:12:41;;;;;;;8.00;1.75;;;;;;;;;;6097087;23;20473;-82
2023/05/07 12:15:08;;;;;;;4.80;2.38;;;;;;;;;;6121903;23;20006;-82
2023/05/07 12:17:34;;;;;;;6.95;2.67;;;;;;;;;;6123175;23;20093;-83
2023/05/07 12:20:00;;;;;;;9.70;2.63;;;;;;;;;;6122475;23;20052;-82
2023/05/07 12:22:27;;;;;;;8.15;2.97;;;;;;;;;;6123604;23;20017;-83
2023/05/07 12:24:59;;;;;;;6.50;3.08;;;;;;;;;;6122298;23;20010;-84
2023/05/07 12:27:26;;;;;;;6.93;2.97;;;;;;;;;;6096768;23;20006;-83
2023/05/07 12:29:52;;;;;;;4.75;2.80;;;;;;;;;;6122303;23;20048;-83
2023/05/07 12:32:18;;;;;;;6.38;2.75;;;;;;;;;;6093798;23;20009;-83
2023/05/07 12:34:45;;;;;;;9.18;3.78;;;;;;;;;;6121139;23;20010;-83
2023/05/07 12:37:12;;;;;;;6.80;3.17;;;;;;;;;;6095973;23;20010;-82
2023/05/07 12:39:38;;;;;;;8.40;3.10;;;;;;;;;;6092273;23;20014;-82
2023/05/07 12:42:04;;;;;;;6.00;2.28;;;;;;;;;;6095341;23;20053;-82
2023/05/07 12:44:31;;;;;;;9.85;2.67;;;;;;;;;;6093949;23;20104;-82
2023/05/07 12:46:58;;;;;;;5.80;2.80;;;;;;;;;;6122499;23;20056;-82
2023/05/07 12:49:25;;;;;;;5.60;2.45;;;;;;;;;;6121843;23;20077;-82
2023/05/07 12:51:51;;;;;;;8.27;4.00;;;;;;;;;;6122762;23;20006;-83
2023/05/07 12:54:30;;;;;;;13.80;3.58;;;;;;;;;;6095777;23;20022;-82
2023/05/07 12:57:03;;;;;;;10.98;4.30;;;;;;;;;;6122639;23;20060;-83
2023/05/07 12:59:33;;;;;;;12.20;3.78;;;;;;;;;;6095664;23;20489;-83
2023/05/07 13:01:59;;;;;;;11.07;3.38;;;;;;;;;;6096669;23;20477;-83
2023/05/07 13:04:25;;;;;;;7.45;3.00;;;;;;;;;;6122230;23;20014;-83
2023/05/07 13:06:52;;;;;;;15.90;2.85;;;;;;;;;;6096467;23;20460;-82
2023/05/07 13:09:18;;;;;;;6.53;2.53;;;;;;;;;;6121478;23;20014;-82
2023/05/07 13:11:43;;;;;;;6.68;2.53;;;;;;;;;;6096619;23;20399;-82
2023/05/07 13:14:09;;;;;;;6.05;2.42;;;;;;;;;;6095934;23;20028;-82
2023/05/07 13:16:35;;;;;;;12.98;2.03;;;;;;;;;;6096284;23;20492;-82
2023/05/07 13:19:01;;;;;;;6.90;1.75;;;;;;;;;;6095429;23;20006;-82
2023/05/07 13:21:27;;;;;;;5.55;2.13;;;;;;;;;;6095700;23;20009;-82
2023/05/07 13:23:53;;;;;;;4.20;1.80;;;;;;;;;;6095637;23;20333;-82
2023/05/07 13:26:20;;;;;;;9.85;2.55;;;;;;;;;;6095043;23;20049;-82
2023/05/07 13:28:46;;;;;;;5.07;2.13;;;;;;;;;;6095503;23;20014;-82
2023/05/07 13:31:12;;;;;;;5.97;2.30;;;;;;;;;;6122361;23;20021;-82
2023/05/07 13:33:38;;;;;;;5.47;1.77;;;;;;;;;;6121132;23;20013;-82
2023/05/07 13:36:05;;;;;;;8.95;1.70;;;;;;;;;;6095838;23;20374;-82
2023/05/07 13:38:31;;;;;;;8.13;1.85;;;;;;;;;;6121627;23;20006;-82
2023/05/07 13:40:57;;;;;;;4.82;2.25;;;;;;;;;;6095227;23;20042;-82
2023/05/07 13:43:23;;;;;;;7.93;1.88;;;;;;;;;;6095667;23;20010;-82
2023/05/07 13:45:49;;;;;;;3.63;1.98;;;;;;;;;;6095690;23;20030;-82
2023/05/07 13:48:15;;;;;;;5.40;1.88;;;;;;;;;;6096188;23;20060;-82
2023/05/07 13:50:41;;;;;;;5.70;1.90;;;;;;;;;;6095555;23;20500;-82
2023/05/07 13:53:08;;;;;;;10.20;3.22;;;;;;;;;;6095986;23;20010;-82
2023/05/07 13:55:34;;;;;;;4.63;2.25;;;;;;;;;;6095120;23;20026;-82
2023/05/07 13:58:00;;;;;;;5.70;2.28;;;;;;;;;;6121542;23;20002;-82
2023/05/07 14:00:27;;;;;;;4.68;1.90;;;;;;;;;;6121151;23;20010;-82
2023/05/07 14:02:53;;;;;;;5.85;2.00;;;;;;;;;;6095311;23;20025;-82
2023/05/07 14:05:20;;;;;;;6.10;2.08;;;;;;;;;;6120718;23;20089;-82
2023/05/07 14:07:47;;;;;;;5.72;1.83;;;;;;;;;;6121931;23;20017;-82
2023/05/07 14:10:13;;;;;;;4.40;2.17;;;;;;;;;;6095204;23;20041;-82
2023/05/07 14:12:40;;;;;;;3.35;1.88;;;;;;;;;;6121616;23;20382;-82
2023/05/07 14:15:06;;;;;;;3.67;1.63;;;;;;;;;;6097144;23;20102;-82
2023/05/07 14:17:32;;;;;;;3.60;1.60;;;;;;;;;;6097895;23;20010;-82
2023/05/07 14:19:58;;;;;;;4.38;1.73;;;;;;;;;;6097161;23;20093;-82
2023/05/07 14:22:24;;;;;;;5.20;2.05;;;;;;;;;;6097659;23;20014;-82
2023/05/07 14:24:51;;;;;;;5.93;1.73;;;;;;;;;;6096869;23;20036;-82
2023/05/07 14:27:17;;;;;;;3.97;1.70;;;;;;;;;;6123634;23;20060;-82
2023/05/07 14:29:45;;;;;;;5.38;1.65;;;;;;;;;;6123406;23;20010;-81
2023/05/07 14:32:11;;;;;;;3.75;1.33;;;;;;;;;;6124201;23;20060;-81
2023/05/07 14:34:37;;;;;;;3.30;1.20;;;;;;;;;;6097639;23;20600;-81
2023/05/07 14:37:03;;;;;;;3.38;1.33;;;;;;;;;;6124110;23;20020;-82
2023/05/07 14:39:29;;;;;;;2.50;1.38;;;;;;;;;;6096982;23;20037;-81
2023/05/07 14:41:55;;;;;;;3.92;1.65;;;;;;;;;;6097605;23;20018;-82
2023/05/07 14:44:22;;;;;;;3.97;1.92;;;;;;;;;;6096337;23;20145;-81
2023/05/07 14:46:48;;;;;;;4.47;1.40;;;;;;;;;;6097442;23;20057;-81
2023/05/07 14:49:16;;;;;;;9.40;1.48;;;;;;;;;;6096510;23;20053;-81
2023/05/07 14:51:46;;;;;;;6.13;1.90;;;;;;;;;;6097455;23;20109;-81
2023/05/07 14:54:12;;;;;;;9.27;2.13;;;;;;;;;;6096472;23;20337;-81
2023/05/07 14:56:38;;;;;;;11.95;1.90;;;;;;;;;;6097609;23;20025;-82
2023/05/07 14:59:05;;;;;;;4.68;2.13;;;;;;;;;;6096628;23;20105;-82
2023/05/07 15:01:31;;;;;;;8.45;2.35;;;;;;;;;;6097184;23;20014;-82
2023/05/07 15:03:57;;;;;;;5.53;2.22;;;;;;;;;;6122670;23;20303;-81
2023/05/07 15:06:23;;;;;;;5.63;2.22;;;;;;;;;;6097175;23;20138;-81
2023/05/07 15:08:49;;;;;;;4.40;1.73;;;;;;;;;;6122871;23;20303;-82
2023/05/07 15:11:15;;;;;;;5.90;1.80;;;;;;;;;;6096865;23;20018;-81
2023/05/07 15:13:42;;;;;;;6.28;2.63;;;;;;;;;;6096515;23;20033;-82
2023/05/07 15:16:08;;;;;;;8.48;2.10;;;;;;;;;;6092342;23;20015;-83
2023/05/07 15:18:34;;;;;;;6.60;1.85;;;;;;;;;;6094941;23;20024;-81
2023/05/07 15:21:00;;;;;;;5.47;1.90;;;;;;;;;;6094174;23;20092;-81
2023/05/07 15:23:30;;;;;;;5.20;2.05;;;;;;;;;;6127083;23;20440;-81
2023/05/07 15:29:10;;;;;;;5.20;2.08;;;;;;;;;;6175176;23;20024;-82
2023/05/07 15:31:49;;;;;;;6.00;2.25;;;;;;;;;;6155343;23;20013;-82
2023/05/07 15:39:53;;;;;;;3.60;1.85;;;;;;;;;;6181277;23;20025;-80
2023/05/07 15:43:03;;;;;;;5.22;2.20;;;;;;;;;;6155159;23;20013;-81
2023/05/07 15:48:45;;;;;;;3.95;1.90;;;;;;;;;;6175442;23;20368;-82
2023/05/07 15:51:32;;;;;;;4.95;2.10;;;;;;;;;;6153920;23;20017;-83
2023/05/07 15:54:04;;;;;;;5.30;2.45;;;;;;;;;;6181158;23;20087;-82
2023/05/07 15:56:32;;;;;;;8.30;2.45;;;;;;;;;;6182037;23;20005;-81
2023/05/07 15:59:23;;;;;;;6.78;2.63;;;;;;;;;;6179461;23;20079;-82
2023/05/07 16:02:02;;;;;;;4.80;2.95;;;;;;;;;;6179659;23;20025;-82
2023/05/07 16:07:49;;;;;;;4.22;1.55;;;;;;;;;;6061271;23;20082;-81
2023/05/07 16:10:22;;;;;;;6.13;2.67;;;;;;;;;;6073396;23;20132;-82
2023/05/07 16:13:06;;;;;;;6.15;1.98;;;;;;;;;;6124981;23;20069;-81
2023/05/07 16:29:49;;;;;;;6.43;1.77;;;;;;;;;;6181363;23;20033;-82
2023/05/07 16:33:07;;;;;;;;;;;;;;;;;;;;;
2023/05/07 16:35:43;;;;;;;;;;;;;;;;;;;;;
2023/05/07 16:40:41;;;;;;;4.30;1.60;;;;;;;;;;6168534;23;20075;-81
2023/05/07 16:43:22;;;;;;;5.30;1.48;;;;;;;;;;6154701;23;20013;-81
2023/05/07 16:45:48;;;;;;;4.25;1.42;;;;;;;;;;6156892;23;20037;-81
2023/05/07 16:51:28;;;;;;;2.97;1.35;;;;;;;;;;6181004;23;20045;-80
2023/05/07 17:08:50;;;;;;;4.22;1.50;;;;;;;;;;6181710;23;20068;-81
2023/05/07 17:11:42;;;;;;;4.13;1.42;;;;;;;;;;6181361;23;20017;-81
2023/05/07 17:30:11;;;;;;;6.88;3.53;;;;;;;;;;6180601;23;20039;-82
2023/05/07 17:54:17;;;;;;;23.48;12.45;;;;;;;;;;6120563;23;20057;-79
2023/05/07 17:56:44;;;;;;;14.38;6.95;;;;;;;;;;5958108;23;20219;-80
2023/05/07 17:59:10;;;;;;;13.85;4.53;;;;;;;;;;6089013;23;20014;-80
2023/05/07 18:01:37;;;;;;;7.28;2.53;;;;;;;;;;6089852;23;20021;-80
2023/05/07 18:04:11;;;;;;;6.07;1.90;;;;;;;;;;6089590;23;20019;-80
2023/05/07 18:18:23;;;;;;;11.23;5.18;;;;;;;;;;6178675;23;20029;-81
2023/05/07 18:50:37;;;;;;;15.43;9.30;;;;;;;;;;6178871;23;20100;-84
